Time;durP1;ratioP1;P1;durP2;ratioP2;P2;SDS_P1;SDS_P2;PMS_P1;PMS_P2;Temp;Humidity;BMP_temperature;BMP_pressure;BME280_temperature;BME280_humidity;BME280_pressure;Samples;Min_cycle;Max_cycle;Signal;HPM_P1;HPM_P2
2021/12/14 00:00:46;;;;;;;0.43;0.33;;;;;;;8.79;100.00;102124.56;5056835;28;20473;-70
2021/12/14 00:03:18;;;;;;;0.40;0.30;;;;;;;8.78;100.00;102120.25;5056847;28;20503;-70
2021/12/14 00:05:45;;;;;;;0.40;0.30;;;;;;;8.78;100.00;102127.53;5056845;28;20429;-70
2021/12/14 00:08:15;;;;;;;0.40;0.30;;;;;;;8.76;100.00;102127.78;5056361;28;20993;-70
2021/12/14 00:11:07;;;;;;;0.40;0.30;;;;;;;8.75;100.00;102130.72;5056374;28;20456;-70
2021/12/14 00:13:47;;;;;;;0.40;0.30;;;;;;;8.74;100.00;102124.50;5056674;28;20437;-70
2021/12/14 00:16:14;;;;;;;0.40;0.30;;;;;;;8.73;100.00;102128.28;5056657;28;20445;-70
2021/12/14 00:18:43;;;;;;;0.40;0.30;;;;;;;8.73;100.00;102138.28;5056367;28;20458;-70
2021/12/14 00:21:19;;;;;;;0.40;0.30;;;;;;;8.73;100.00;102141.00;5056494;28;20517;-70
2021/12/14 00:26:32;;;;;;;0.40;0.30;;;;;;;8.65;100.00;102127.91;5056336;28;20456;-71
2021/12/14 00:28:58;;;;;;;0.40;0.30;;;;;;;8.67;100.00;102131.97;5055975;28;20462;-71
2021/12/14 00:31:25;;;;;;;2.30;2.20;;;;;;;8.67;100.00;102125.75;5056313;28;20823;-70
2021/12/14 00:33:57;;;;;;;0.40;0.30;;;;;;;8.66;100.00;102124.94;5056222;28;20499;-70
2021/12/14 00:36:24;;;;;;;0.40;0.30;;;;;;;8.63;100.00;102119.22;5056270;28;20429;-70
2021/12/14 00:38:56;;;;;;;0.40;0.30;;;;;;;8.63;100.00;102120.03;5055991;28;20469;-70
2021/12/14 00:41:27;;;;;;;0.40;0.30;;;;;;;8.64;100.00;102127.09;5056171;28;20438;-70
2021/12/14 00:43:53;;;;;;;0.40;0.30;;;;;;;8.63;100.00;102124.63;5055782;28;20484;-70
2021/12/14 00:46:20;;;;;;;0.40;0.30;;;;;;;8.64;100.00;102120.88;5056042;28;20450;-70
2021/12/14 00:48:49;;;;;;;0.40;0.30;;;;;;;8.65;100.00;102125.22;5055941;28;20484;-70
2021/12/14 00:51:21;;;;;;;0.40;0.30;;;;;;;8.65;100.00;102131.41;5055690;28;20449;-70
2021/12/14 00:53:48;;;;;;;0.40;0.20;;;;;;;8.63;100.00;102128.13;5055930;28;20430;-70
2021/12/14 00:56:15;;;;;;;0.40;0.30;;;;;;;8.61;100.00;102130.28;5055844;28;20437;-70
2021/12/14 00:58:42;;;;;;;6.53;1.80;;;;;;;8.60;100.00;102128.66;5055467;28;20473;-70
2021/12/14 01:01:12;;;;;;;0.50;0.50;;;;;;;8.63;100.00;102132.72;5055793;28;20446;-71
2021/12/14 01:03:42;;;;;;;0.40;0.40;;;;;;;8.62;100.00;102125.69;5055692;28;20445;-70
2021/12/14 01:06:11;;;;;;;0.40;0.30;;;;;;;8.62;100.00;102118.41;5055649;28;20450;-70
2021/12/14 01:08:40;;;;;;;0.40;0.30;;;;;;;8.62;100.00;102125.69;5055363;28;20502;-71
2021/12/14 01:11:12;;;;;;;0.53;0.53;;;;;;;8.58;100.00;102112.69;5055609;28;20433;-70
2021/12/14 01:13:44;;;;;;;0.67;0.67;;;;;;;8.58;100.00;102120.78;5055550;28;20438;-70
2021/12/14 01:16:31;;;;;;;0.60;0.60;;;;;;;8.57;100.00;102119.16;5055304;28;20781;-70
2021/12/14 01:19:12;;;;;;;0.40;0.30;;;;;;;8.60;100.00;102117.84;5055326;28;20506;-70
2021/12/14 01:21:57;;;;;;;0.40;0.30;;;;;;;8.57;100.00;102119.16;5055382;28;20438;-70
2021/12/14 01:24:51;;;;;;;0.40;0.30;;;;;;;8.59;100.00;102121.63;5055406;28;20668;-70
2021/12/14 01:27:22;;;;;;;0.40;0.30;;;;;;;8.55;100.00;102126.72;5055136;28;20443;-70
2021/12/14 01:29:52;;;;;;;0.50;0.40;;;;;;;8.50;100.00;102117.69;5054935;28;20936;-70
2021/12/14 01:32:21;;;;;;;0.40;0.30;;;;;;;8.46;100.00;102119.28;5055184;28;20524;-70
2021/12/14 01:34:47;;;;;;;0.40;0.30;;;;;;;8.45;100.00;102113.03;5055148;28;20446;-70
2021/12/14 01:37:19;;;;;;;0.40;0.30;;;;;;;8.47;100.00;102112.81;5054977;28;20437;-70
2021/12/14 01:40:02;;;;;;;0.40;0.30;;;;;;;8.48;100.00;102117.13;5054976;28;20523;-70
2021/12/14 01:42:31;;;;;;;0.40;0.30;;;;;;;8.37;100.00;102112.66;5055000;28;20434;-70
2021/12/14 01:45:05;;;;;;;0.40;0.30;;;;;;;8.37;100.00;102116.19;5054900;28;20446;-70
2021/12/14 01:47:36;;;;;;;0.40;0.30;;;;;;;8.36;100.00;102111.81;5054890;28;20478;-70
2021/12/14 01:50:04;;;;;;;0.40;0.30;;;;;;;8.35;100.00;102105.59;5054910;28;20430;-70
2021/12/14 01:52:33;;;;;;;0.40;0.30;;;;;;;8.37;100.00;102109.94;5054794;28;20442;-70
2021/12/14 01:55:08;;;;;;;0.40;0.30;;;;;;;8.37;100.00;102108.09;5054736;28;20445;-70
2021/12/14 01:57:35;;;;;;;0.40;0.30;;;;;;;8.37;100.00;102105.41;5054666;28;20461;-70
2021/12/14 02:00:05;;;;;;;0.40;0.30;;;;;;;8.38;100.00;102107.03;5054314;28;20852;-70
2021/12/14 02:02:41;;;;;;;0.40;0.30;;;;;;;8.39;100.00;102105.94;5054268;28;20836;-70
2021/12/14 02:05:17;;;;;;;0.40;0.30;;;;;;;8.40;100.00;102095.97;5054273;28;20418;-70
2021/12/14 02:07:45;;;;;;;0.63;0.63;;;;;;;8.41;100.00;102097.59;5054093;28;20989;-70
2021/12/14 02:10:17;;;;;;;0.40;0.30;;;;;;;8.41;100.00;102093.03;5053517;28;20453;-70
2021/12/14 02:12:45;;;;;;;0.40;0.30;;;;;;;8.41;100.00;102092.19;5054428;28;20460;-69
2021/12/14 02:15:17;;;;;;;0.40;0.30;;;;;;;8.42;100.00;102091.16;5054337;28;20434;-70
2021/12/14 02:17:45;;;;;;;0.40;0.30;;;;;;;8.35;100.00;102085.88;5054211;28;20473;-70
2021/12/14 02:20:13;;;;;;;0.40;0.30;;;;;;;8.33;100.00;102085.31;5054174;28;20563;-69
2021/12/14 02:22:41;;;;;;;0.40;0.30;;;;;;;8.34;100.00;102079.66;5054192;28;20445;-70
2021/12/14 02:25:09;;;;;;;0.40;0.30;;;;;;;8.35;100.00;102078.59;5054186;28;20445;-70
2021/12/14 02:27:37;;;;;;;0.40;0.30;;;;;;;8.34;100.00;102071.56;5053994;28;20459;-71
2021/12/14 02:30:09;;;;;;;0.40;0.30;;;;;;;8.36;100.00;102079.41;5054077;28;20438;-70
2021/12/14 02:32:36;;;;;;;0.40;0.30;;;;;;;8.29;100.00;102079.59;5054105;28;20446;-70
2021/12/14 02:35:08;;;;;;;0.40;0.30;;;;;;;8.28;100.00;102077.97;5054000;28;20442;-70
2021/12/14 02:37:39;;;;;;;0.40;0.30;;;;;;;8.24;100.00;102079.53;5053911;28;20468;-70
2021/12/14 02:40:18;;;;;;;0.40;0.30;;;;;;;8.27;100.00;102079.00;5053813;28;20479;-70
2021/12/14 02:42:46;;;;;;;0.40;0.30;;;;;;;8.26;100.00;102073.88;5053869;28;20458;-70
2021/12/14 02:45:13;;;;;;;0.40;0.30;;;;;;;8.21;100.00;102071.91;5053470;28;20823;-70
2021/12/14 02:47:39;;;;;;;0.40;0.30;;;;;;;8.20;100.00;102069.47;5053692;28;20873;-71
2021/12/14 02:50:08;;;;;;;0.40;0.30;;;;;;;8.25;100.00;102069.53;5053681;28;20434;-70
2021/12/14 02:52:37;;;;;;;0.40;0.30;;;;;;;8.27;100.00;102062.81;5053716;28;20442;-70
2021/12/14 02:55:11;;;;;;;0.40;0.30;;;;;;;8.29;100.00;102066.09;5053675;28;20850;-70
2021/12/14 02:57:41;;;;;;;0.40;0.30;;;;;;;8.28;100.00;102064.47;5053525;28;20519;-70
2021/12/14 03:00:11;;;;;;;0.40;0.30;;;;;;;8.31;100.00;102063.97;5053463;28;20482;-70
2021/12/14 03:02:38;;;;;;;0.40;0.30;;;;;;;8.32;100.00;102057.50;5053919;28;20843;-70
2021/12/14 03:05:10;;;;;;;0.40;0.30;;;;;;;8.34;100.00;102057.25;5053424;28;20435;-70
2021/12/14 03:07:43;;;;;;;0.40;0.20;;;;;;;8.36;100.00;102055.09;5053316;28;20472;-70
2021/12/14 03:10:32;;;;;;;0.40;0.30;;;;;;;8.34;100.00;102057.25;5053116;28;20545;-70
2021/12/14 03:13:02;;;;;;;0.40;0.30;;;;;;;8.36;100.00;102049.72;5053410;28;20434;-70
2021/12/14 03:15:32;;;;;;;0.40;0.30;;;;;;;8.30;100.00;102048.84;5053310;28;20446;-70
2021/12/14 03:18:01;;;;;;;0.40;0.30;;;;;;;8.29;100.00;102052.59;5053216;28;20462;-70
2021/12/14 03:20:31;;;;;;;0.40;0.30;;;;;;;8.32;100.00;102048.56;5052264;28;20486;-70
2021/12/14 03:23:01;;;;;;;0.40;0.30;;;;;;;8.31;100.00;102050.47;5053185;28;20517;-70
2021/12/14 03:25:31;;;;;;;0.40;0.30;;;;;;;8.28;100.00;102053.69;5053190;28;20448;-70
2021/12/14 03:27:58;;;;;;;0.40;0.20;;;;;;;8.25;100.00;102048.75;5053340;28;20458;-71
2021/12/14 03:30:31;;;;;;;0.40;0.30;;;;;;;8.28;100.00;102036.66;5053149;28;20441;-71
2021/12/14 03:33:01;;;;;;;0.40;0.30;;;;;;;8.27;100.00;102043.91;5053118;28;20434;-70
2021/12/14 03:35:40;;;;;;;0.40;0.30;;;;;;;8.26;100.00;102044.19;5053104;28;20447;-70
2021/12/14 03:38:11;;;;;;;0.40;0.30;;;;;;;8.25;100.00;102040.66;5052996;28;20453;-70
2021/12/14 03:40:39;;;;;;;0.40;0.30;;;;;;;8.25;100.00;102029.88;5052668;28;20483;-70
2021/12/14 03:43:06;;;;;;;0.40;0.20;;;;;;;8.27;100.00;102038.53;5053079;28;20438;-70
2021/12/14 03:45:32;;;;;;;0.40;0.30;;;;;;;8.25;100.00;102037.97;5053053;28;20446;-70
2021/12/14 03:48:01;;;;;;;0.40;0.27;;;;;;;8.26;100.00;102028.00;5053208;28;20815;-71
2021/12/14 03:50:30;;;;;;;0.40;0.27;;;;;;;8.27;100.00;102030.44;5052962;28;20438;-70
2021/12/14 03:52:57;;;;;;;0.40;0.30;;;;;;;8.25;100.00;102029.06;5052916;28;20450;-70
2021/12/14 03:55:28;;;;;;;0.40;0.30;;;;;;;8.26;100.00;102019.88;5052952;28;20453;-70
2021/12/14 03:57:56;;;;;;;0.40;0.30;;;;;;;8.27;100.00;102019.63;5052843;28;20469;-70
2021/12/14 04:00:27;;;;;;;0.40;0.30;;;;;;;8.27;100.00;102013.41;5052774;28;20488;-70
2021/12/14 04:02:57;;;;;;;0.40;0.30;;;;;;;8.26;100.00;102014.50;5052860;28;20427;-70
2021/12/14 04:05:24;;;;;;;0.40;0.30;;;;;;;8.25;100.00;102002.88;5052807;28;20433;-71
2021/12/14 04:07:51;;;;;;;0.40;0.30;;;;;;;8.22;100.00;102000.66;5052578;28;20446;-70
2021/12/14 04:10:22;;;;;;;0.40;0.20;;;;;;;8.25;100.00;101985.88;5052416;28;20454;-70
2021/12/14 04:12:48;;;;;;;0.40;0.30;;;;;;;8.26;100.00;101982.91;5052778;28;20426;-70
2021/12/14 04:15:17;;;;;;;0.40;0.20;;;;;;;8.25;100.00;101977.78;5052725;28;20443;-70
2021/12/14 04:17:43;;;;;;;0.40;0.30;;;;;;;8.26;100.00;101984.78;5052642;28;20458;-70
2021/12/14 04:20:14;;;;;;;0.40;0.27;;;;;;;8.23;100.00;101974.50;5052620;28;20477;-70
2021/12/14 04:22:44;;;;;;;1.80;1.70;;;;;;;8.25;100.00;101975.06;5052682;28;20431;-70
2021/12/14 04:25:11;;;;;;;0.40;0.30;;;;;;;8.26;100.00;101969.41;5052670;28;20446;-69
2021/12/14 04:27:38;;;;;;;0.40;0.20;;;;;;;8.20;100.00;101970.44;5052504;28;20945;-70
2021/12/14 04:30:09;;;;;;;0.40;0.30;;;;;;;8.23;100.00;101969.91;5076203;23;20499;-82
2021/12/14 04:32:38;;;;;;;0.40;0.30;;;;;;;8.24;100.00;101963.47;5075533;28;20802;-82
2021/12/14 04:35:07;;;;;;;0.40;0.30;;;;;;;8.21;100.00;101945.06;5077866;28;20485;-82
2021/12/14 04:37:37;;;;;;;0.40;0.30;;;;;;;8.22;100.00;101956.66;5081069;22;20486;-70
2021/12/14 04:40:18;;;;;;;0.40;0.30;;;;;;;8.18;100.00;101953.66;5036519;28;20474;-71
2021/12/14 04:53:48;;;;;;;0.40;0.30;;;;;;;8.09;100.00;101968.66;5035822;28;20477;-70
2021/12/14 04:56:18;;;;;;;0.40;0.30;;;;;;;8.07;100.00;101966.22;5036028;28;20803;-71
2021/12/14 04:58:49;;;;;;;0.40;0.30;;;;;;;8.09;100.00;101976.75;5035894;28;20471;-72
2021/12/14 05:01:17;;;;;;;0.40;0.30;;;;;;;8.05;100.00;101979.13;5035734;28;20497;-70
2021/12/14 05:03:50;;;;;;;0.40;0.30;;;;;;;8.06;100.00;101985.38;5035833;28;20451;-70
2021/12/14 05:06:21;;;;;;;0.40;0.30;;;;;;;8.07;100.00;101985.09;5035889;28;20434;-70
2021/12/14 05:11:34;;;;;;;0.40;0.30;;;;;;;8.07;100.00;101985.09;5035731;28;20411;-70
2021/12/14 05:14:06;;;;;;;0.40;0.30;;;;;;;8.09;100.00;102001.03;5035663;28;20439;-71
2021/12/14 05:16:32;;;;;;;1.83;1.70;;;;;;;8.06;100.00;101988.06;5035622;28;20435;-70
2021/12/14 05:19:05;;;;;;;0.40;0.30;;;;;;;8.04;100.00;101998.28;5035108;28;21015;-71
2021/12/14 05:21:33;;;;;;;0.40;0.27;;;;;;;8.05;100.00;102005.28;5035476;28;20475;-71
2021/12/14 05:24:02;;;;;;;0.40;0.30;;;;;;;8.07;100.00;102004.00;5035501;28;20439;-71
2021/12/14 05:26:29;;;;;;;0.40;0.30;;;;;;;8.06;100.00;102007.75;5035359;28;20447;-71
2021/12/14 05:28:56;;;;;;;0.50;0.20;;;;;;;8.07;100.00;102003.19;5035344;28;20470;-71
2021/12/14 05:31:22;;;;;;;0.40;0.27;;;;;;;8.07;100.00;102008.56;5035057;28;20442;-70
2021/12/14 05:33:49;;;;;;;0.40;0.30;;;;;;;8.10;100.00;101997.25;5034973;28;20823;-72
2021/12/14 05:36:21;;;;;;;0.40;0.30;;;;;;;8.11;100.00;102004.31;5035298;28;20447;-70
2021/12/14 05:38:56;;;;;;;0.40;0.30;;;;;;;8.08;100.00;102011.00;5035059;28;20506;-71
2021/12/14 05:44:11;;;;;;;0.40;0.30;;;;;;;8.07;100.00;102003.19;5033639;28;20839;-70
2021/12/14 05:46:38;;;;;;;0.40;0.30;;;;;;;8.06;100.00;102009.66;5034804;28;20439;-71
2021/12/14 05:49:11;;;;;;;0.40;0.30;;;;;;;8.05;100.00;102005.28;5034858;28;20458;-72
2021/12/14 05:51:39;;;;;;;0.40;0.30;;;;;;;8.00;100.00;101999.84;5034830;28;20427;-72
2021/12/14 05:54:06;;;;;;;0.40;0.30;;;;;;;8.01;100.00;101998.75;5034443;28;20933;-70
2021/12/14 05:56:35;;;;;;;0.40;0.30;;;;;;;8.03;100.00;101999.34;5035259;28;20874;-71
2021/12/14 05:59:03;;;;;;;0.40;0.30;;;;;;;8.03;100.00;102000.16;5034504;28;20510;-70
2021/12/14 06:01:32;;;;;;;0.40;0.30;;;;;;;8.03;100.00;101996.66;5034713;28;20490;-70
2021/12/14 06:04:01;;;;;;;0.40;0.30;;;;;;;8.05;100.00;102002.59;5034727;28;20785;-69
2021/12/14 06:06:30;;;;;;;1.13;1.13;;;;;;;8.02;100.00;102000.41;5034740;28;20447;-72
2021/12/14 06:09:06;;;;;;;0.40;0.30;;;;;;;8.01;100.00;101994.22;5034500;28;20462;-71
2021/12/14 06:11:33;;;;;;;0.40;0.30;;;;;;;8.05;100.00;101989.09;5034644;28;20426;-72
2021/12/14 06:14:00;;;;;;;0.80;0.80;;;;;;;8.05;100.00;101997.19;5034576;28;20462;-70
2021/12/14 06:16:29;;;;;;;0.40;0.30;;;;;;;8.04;100.00;101995.56;5034182;28;20808;-71
2021/12/14 06:19:14;;;;;;;0.50;0.30;;;;;;;8.05;100.00;101987.22;5034332;28;20459;-73
2021/12/14 06:21:41;;;;;;;0.40;0.30;;;;;;;8.06;100.00;101982.66;5034215;28;20486;-73
2021/12/14 06:24:12;;;;;;;0.40;0.20;;;;;;;8.07;100.00;101979.72;5034350;28;20489;-71
2021/12/14 06:26:41;;;;;;;0.87;0.87;;;;;;;8.08;100.00;101972.41;5034223;28;20447;-73
2021/12/14 06:29:11;;;;;;;0.40;0.30;;;;;;;8.07;100.00;101973.50;5034158;28;20649;-71
2021/12/14 06:31:38;;;;;;;0.40;0.30;;;;;;;8.06;100.00;101972.69;5034109;28;20823;-73
2021/12/14 06:34:23;;;;;;;0.40;0.30;;;;;;;8.02;100.00;101968.84;5034048;28;20451;-71
2021/12/14 06:37:28;;;;;;;0.40;0.30;;;;;;;8.02;100.00;101974.25;5033723;28;20842;-73
2021/12/14 06:40:00;;;;;;;0.40;0.30;;;;;;;7.97;100.00;101967.94;5033975;28;20467;-70
2021/12/14 06:42:27;;;;;;;0.40;0.30;;;;;;;7.94;100.00;101968.47;5033607;28;20938;-69
2021/12/14 06:45:05;;;;;;;0.40;0.30;;;;;;;7.90;100.00;101970.84;5033996;28;20469;-71
2021/12/14 06:47:33;;;;;;;0.50;0.30;;;;;;;7.84;100.00;101969.94;5033839;28;20443;-70
2021/12/14 06:50:00;;;;;;;0.40;0.30;;;;;;;7.86;100.00;101974.28;5034058;28;20470;-70
2021/12/14 06:52:27;;;;;;;0.40;0.30;;;;;;;7.88;100.00;101970.28;5033734;28;20443;-70
2021/12/14 06:54:53;;;;;;;0.40;0.30;;;;;;;7.89;100.00;101971.09;5033239;28;20428;-70
2021/12/14 06:57:22;;;;;;;0.40;0.30;;;;;;;7.89;100.00;101963.81;5033817;28;20442;-70
2021/12/14 06:59:49;;;;;;;0.40;0.30;;;;;;;7.93;100.00;101966.84;5033709;28;20558;-71
2021/12/14 07:02:15;;;;;;;0.40;0.30;;;;;;;7.97;100.00;101966.09;5033587;28;20490;-71
2021/12/14 07:04:48;;;;;;;0.40;0.30;;;;;;;7.98;100.00;101964.19;5033603;28;20447;-72
2021/12/14 07:07:18;;;;;;;0.40;0.30;;;;;;;7.97;100.00;101970.63;5033733;28;20801;-72
2021/12/14 07:09:48;;;;;;;0.40;0.30;;;;;;;7.92;100.00;101984.88;5033207;28;20467;-72
2021/12/14 07:12:16;;;;;;;0.40;0.30;;;;;;;7.95;100.00;101984.38;5033533;28;20799;-70
2021/12/14 07:15:02;;;;;;;0.40;0.30;;;;;;;7.96;100.00;101982.50;5033405;28;20443;-71
2021/12/14 07:17:32;;;;;;;0.40;0.30;;;;;;;7.96;100.00;101990.59;5033485;28;20614;-72
2021/12/14 07:20:02;;;;;;;0.40;0.30;;;;;;;7.94;100.00;101995.44;5033288;28;20463;-71
2021/12/14 07:22:47;;;;;;;0.40;0.30;;;;;;;7.96;100.00;101996.00;5032961;28;21012;-72
2021/12/14 07:25:17;;;;;;;0.40;0.30;;;;;;;7.97;100.00;101994.91;5033446;28;20434;-70
2021/12/14 07:27:44;;;;;;;0.40;0.30;;;;;;;8.00;100.00;102000.66;5033317;28;20446;-71
2021/12/14 07:30:16;;;;;;;2.17;2.00;;;;;;;7.92;100.00;101998.38;5033163;28;20467;-70
2021/12/14 07:32:48;;;;;;;0.73;0.73;;;;;;;7.88;100.00;102001.81;5032926;28;20905;-70
2021/12/14 07:35:37;;;;;;;0.40;0.20;;;;;;;7.91;100.00;101994.03;5033558;28;20455;-69
2021/12/14 07:38:18;;;;;;;0.40;0.30;;;;;;;7.95;100.00;101997.06;5033065;28;20828;-69
2021/12/14 07:40:48;;;;;;;0.40;0.30;;;;;;;7.95;100.00;102007.84;5033085;28;20470;-70
2021/12/14 07:43:19;;;;;;;0.40;0.30;;;;;;;7.93;100.00;102007.31;5033229;28;20446;-70
2021/12/14 07:45:50;;;;;;;0.40;0.30;;;;;;;7.90;100.00;102013.19;5032909;28;20925;-69
2021/12/14 07:48:18;;;;;;;0.40;0.30;;;;;;;7.88;100.00;102010.75;5033141;28;20526;-69
2021/12/14 07:50:49;;;;;;;0.40;0.30;;;;;;;7.91;100.00;102020.22;5033006;28;20467;-70
2021/12/14 07:53:31;;;;;;;0.40;0.30;;;;;;;7.96;100.00;102018.38;5032899;28;20430;-70
2021/12/14 07:55:57;;;;;;;0.40;0.30;;;;;;;7.99;100.00;102022.50;5033134;28;20454;-68
2021/12/14 07:58:31;;;;;;;0.40;0.20;;;;;;;8.03;100.00;102020.94;5032948;28;20466;-71
2021/12/14 08:01:00;;;;;;;0.40;0.30;;;;;;;8.05;100.00;102021.47;5032994;28;20437;-69
2021/12/14 08:03:33;;;;;;;0.40;0.30;;;;;;;7.96;100.00;102015.69;5033033;28;20446;-70
2021/12/14 08:06:01;;;;;;;0.40;0.30;;;;;;;8.03;100.00;102015.53;5032955;28;20434;-71
2021/12/14 08:08:40;;;;;;;4.73;2.20;;;;;;;8.03;100.00;102013.66;5036096;28;20474;-71
2021/12/14 08:11:29;;;;;;;0.50;0.30;;;;;;;8.03;100.00;102005.56;5036928;28;20435;-69
2021/12/14 08:13:58;;;;;;;5.13;4.63;;;;;;;8.03;100.00;102016.34;5036821;28;20796;-70
2021/12/14 08:16:26;;;;;;;0.40;0.30;;;;;;;8.06;100.00;102018.56;5036708;28;20450;-69
2021/12/14 08:18:53;;;;;;;0.40;0.30;;;;;;;8.06;100.00;102028.53;5036675;28;20513;-71
2021/12/14 08:21:22;;;;;;;0.40;0.23;;;;;;;8.07;100.00;102033.69;5036599;28;20495;-71
2021/12/14 08:23:54;;;;;;;0.40;0.30;;;;;;;8.11;100.00;102034.00;5036351;28;20971;-70
2021/12/14 08:26:24;;;;;;;0.40;0.30;;;;;;;8.09;100.00;102044.22;5036475;28;20530;-70
2021/12/14 08:28:56;;;;;;;0.67;0.67;;;;;;;8.10;100.00;102040.44;5036466;28;20459;-70
2021/12/14 08:31:31;;;;;;;0.40;0.30;;;;;;;8.11;100.00;102042.09;5036479;28;20430;-70
2021/12/14 08:34:00;;;;;;;0.40;0.30;;;;;;;8.01;100.00;102037.38;5036408;28;20438;-70
2021/12/14 08:36:35;;;;;;;0.40;0.30;;;;;;;8.02;100.00;102038.19;5035966;28;20987;-70
2021/12/14 08:39:06;;;;;;;0.40;0.30;;;;;;;8.05;100.00;102041.19;5036274;28;20470;-70
2021/12/14 08:41:33;;;;;;;0.40;0.30;;;;;;;8.04;100.00;102042.25;5036325;28;20499;-71
2021/12/14 08:44:08;;;;;;;0.40;0.30;;;;;;;8.04;100.00;102044.13;5035982;28;20435;-70
2021/12/14 08:46:37;;;;;;;0.40;0.30;;;;;;;8.03;100.00;102050.63;5036241;28;20530;-72
2021/12/14 08:49:07;;;;;;;0.40;0.30;;;;;;;8.02;100.00;102051.69;5036104;28;20864;-70
2021/12/14 08:51:37;;;;;;;2.60;2.50;;;;;;;8.01;100.00;102040.06;5036258;28;20827;-70
2021/12/14 08:54:08;;;;;;;0.40;0.30;;;;;;;8.01;100.00;102040.06;5036335;28;20801;-71
2021/12/14 08:56:40;;;;;;;0.70;0.70;;;;;;;8.06;100.00;102042.03;5035888;28;20423;-68
2021/12/14 08:59:07;;;;;;;0.40;0.30;;;;;;;8.09;100.00;102038.81;5035893;28;20467;-68
2021/12/14 09:01:38;;;;;;;0.40;0.27;;;;;;;8.13;100.00;102037.25;5035785;28;20884;-68
2021/12/14 09:04:10;;;;;;;0.40;0.30;;;;;;;8.16;100.00;102034.06;5035536;28;20513;-68
2021/12/14 09:06:39;;;;;;;0.40;0.30;;;;;;;8.20;100.00;102032.50;5035856;28;20423;-68
2021/12/14 09:09:08;;;;;;;0.40;0.30;;;;;;;8.23;100.00;102028.47;5035590;28;20483;-70
2021/12/14 09:11:39;;;;;;;0.40;0.40;;;;;;;8.19;100.00;102030.88;5035374;28;20436;-71
2021/12/14 09:14:09;;;;;;;0.40;0.30;;;;;;;8.22;100.00;102030.38;5035298;28;20928;-70
2021/12/14 09:16:38;;;;;;;0.40;0.30;;;;;;;8.25;100.00;102035.28;5035652;28;20493;-69
2021/12/14 09:19:08;;;;;;;0.40;0.30;;;;;;;8.27;100.00;102032.31;5035703;28;20466;-70
2021/12/14 09:21:38;;;;;;;0.40;0.20;;;;;;;8.29;100.00;102028.31;5035373;28;20439;-69
2021/12/14 09:24:09;;;;;;;0.40;0.30;;;;;;;8.30;100.00;102032.63;5035476;28;20439;-72
2021/12/14 09:26:41;;;;;;;0.40;0.30;;;;;;;8.32;100.00;102033.22;5035478;28;20446;-71
2021/12/14 09:29:13;;;;;;;0.40;0.30;;;;;;;8.31;100.00;102026.16;5035505;28;20459;-70
2021/12/14 09:31:42;;;;;;;0.40;0.30;;;;;;;8.31;100.00;102028.88;5035444;28;20834;-71
2021/12/14 09:34:11;;;;;;;0.40;0.30;;;;;;;8.28;100.00;102023.16;5034929;28;20976;-72
2021/12/14 09:36:38;;;;;;;0.40;0.30;;;;;;;8.29;100.00;102025.59;5034551;28;20454;-69
2021/12/14 09:39:10;;;;;;;0.40;0.30;;;;;;;8.30;100.00;102021.03;5034232;28;20458;-71
2021/12/14 09:41:38;;;;;;;0.40;0.30;;;;;;;8.28;100.00;102013.19;5034295;28;20423;-71
2021/12/14 09:44:08;;;;;;;0.40;0.30;;;;;;;8.32;100.00;102008.91;5034631;28;20439;-71
2021/12/14 09:46:35;;;;;;;0.40;0.30;;;;;;;8.30;100.00;102008.34;5034620;28;20451;-72
2021/12/14 09:49:06;;;;;;;0.40;0.30;;;;;;;8.35;100.00;102007.59;5034498;28;20454;-70
2021/12/14 09:51:36;;;;;;;0.40;0.30;;;;;;;8.36;100.00;102011.91;5033823;28;20971;-71
2021/12/14 09:54:09;;;;;;;0.40;0.30;;;;;;;8.35;100.00;102008.41;5034452;28;20420;-69
2021/12/14 09:56:39;;;;;;;0.40;0.30;;;;;;;8.37;100.00;102015.44;5034373;28;20439;-72
2021/12/14 09:59:10;;;;;;;0.40;0.30;;;;;;;8.34;99.64;101997.84;5034252;28;20471;-71
2021/12/14 10:01:39;;;;;;;0.40;0.30;;;;;;;8.32;99.58;102003.53;5034225;28;20423;-71
2021/12/14 10:04:10;;;;;;;0.40;0.30;;;;;;;8.32;99.76;102002.69;5034200;28;20447;-71
2021/12/14 10:06:38;;;;;;;0.40;0.30;;;;;;;8.37;99.99;102001.97;5034290;28;20443;-71
2021/12/14 10:09:10;;;;;;;0.60;0.60;;;;;;;8.42;99.77;101996.66;5033720;28;20463;-73
2021/12/14 10:11:48;;;;;;;0.40;0.40;;;;;;;8.45;99.39;101993.41;5033915;28;20470;-73
2021/12/14 10:14:17;;;;;;;0.40;0.30;;;;;;;8.47;99.47;101992.13;5033869;28;20431;-70
2021/12/14 10:16:44;;;;;;;0.40;0.30;;;;;;;8.48;98.63;101985.63;5033912;28;20853;-70
2021/12/14 10:19:16;;;;;;;0.40;0.30;;;;;;;8.49;98.50;101978.34;5033932;28;20461;-69
2021/12/14 10:21:46;;;;;;;0.40;0.30;;;;;;;8.53;98.47;101984.88;5033749;28;20435;-71
2021/12/14 10:24:12;;;;;;;0.40;0.30;;;;;;;8.54;98.40;101984.66;5033816;28;20447;-70
2021/12/14 10:26:44;;;;;;;0.40;0.30;;;;;;;8.59;98.04;101979.31;5033556;28;20450;-70
2021/12/14 10:29:10;;;;;;;0.40;0.30;;;;;;;8.58;97.96;101979.53;5043500;22;20482;-80
2021/12/14 10:31:41;;;;;;;0.40;0.30;;;;;;;8.62;97.92;101986.06;5053643;28;20458;-80
2021/12/14 10:34:14;;;;;;;0.40;0.30;;;;;;;8.62;97.23;101991.47;5060410;28;20433;-80
2021/12/14 10:36:45;;;;;;;0.40;0.30;;;;;;;8.62;97.55;101990.66;5072901;22;20759;-70
2021/12/14 10:39:36;;;;;;;0.40;0.30;;;;;;;8.66;97.54;101994.47;5052947;28;21010;-69
2021/12/14 10:44:55;;;;;;;0.40;0.30;;;;;;;8.74;97.27;101997.56;5047744;28;20496;-69
2021/12/14 10:47:24;;;;;;;0.40;0.30;;;;;;;8.74;97.07;101988.63;5053238;28;20446;-69
2021/12/14 10:49:53;;;;;;;0.50;0.30;;;;;;;8.72;97.32;101996.16;5052725;28;20477;-69
2021/12/14 10:52:24;;;;;;;0.40;0.30;;;;;;;8.80;97.43;101993.81;5053041;28;20488;-69
2021/12/14 10:54:54;;;;;;;0.40;0.30;;;;;;;8.87;97.33;101984.72;5053046;28;20457;-69
2021/12/14 10:57:25;;;;;;;0.40;0.30;;;;;;;8.87;97.02;101977.44;5052793;28;20917;-69
2021/12/14 10:59:54;;;;;;;0.40;0.30;;;;;;;8.91;96.66;101975.03;5052961;28;20466;-70
2021/12/14 11:02:23;;;;;;;0.40;0.40;;;;;;;8.93;96.42;101980.97;5052518;28;20887;-69
2021/12/14 11:04:56;;;;;;;0.40;0.30;;;;;;;8.96;96.08;101975.88;5053173;28;20449;-69
2021/12/14 11:07:26;;;;;;;0.40;0.30;;;;;;;9.00;95.71;101978.91;5052881;28;20431;-69
2021/12/14 11:09:55;;;;;;;0.40;0.30;;;;;;;9.01;94.57;101975.94;5053137;28;20455;-69
2021/12/14 11:12:31;;;;;;;0.40;0.30;;;;;;;9.06;94.61;101975.16;5052442;28;20442;-69
2021/12/14 11:15:00;;;;;;;0.40;0.30;;;;;;;9.10;94.68;101981.69;5052596;28;20457;-69
2021/12/14 11:20:20;;;;;;;0.40;0.30;;;;;;;9.09;94.15;101971.97;5052459;28;20468;-69
2021/12/14 11:22:52;;;;;;;0.40;0.30;;;;;;;9.13;94.15;101973.06;5052585;28;20871;-69
2021/12/14 11:25:24;;;;;;;0.40;0.30;;;;;;;9.14;93.85;101971.19;5052321;28;20908;-69
2021/12/14 11:27:56;;;;;;;0.40;0.30;;;;;;;9.18;93.43;101967.72;5052613;28;20434;-69
2021/12/14 11:30:27;;;;;;;0.40;0.30;;;;;;;9.19;93.02;101963.13;5052485;28;20470;-69
2021/12/14 11:33:07;;;;;;;0.40;0.30;;;;;;;9.24;93.25;101960.44;5052259;28;20849;-69
2021/12/14 11:35:40;;;;;;;0.40;0.30;;;;;;;9.21;92.58;101955.56;5052597;28;20426;-69
2021/12/14 11:38:12;;;;;;;0.40;0.30;;;;;;;9.24;91.95;101961.25;5052242;28;20454;-69
2021/12/14 11:40:39;;;;;;;0.40;0.30;;;;;;;9.20;92.57;101965.56;5052386;28;20462;-69
2021/12/14 11:43:13;;;;;;;0.40;0.30;;;;;;;9.18;93.02;101959.59;5055078;28;20512;-69
2021/12/14 11:45:41;;;;;;;1.33;1.07;;;;;;;9.22;93.01;101965.31;5056600;28;20450;-69
2021/12/14 11:48:09;;;;;;;0.40;0.30;;;;;;;9.24;93.19;101958.56;5056190;28;20923;-69
2021/12/14 11:50:39;;;;;;;0.50;0.40;;;;;;;9.27;93.33;101973.47;5056352;28;20471;-69
2021/12/14 11:53:14;;;;;;;0.40;0.30;;;;;;;9.32;93.68;101973.50;5056451;28;20441;-69
2021/12/14 11:55:43;;;;;;;0.40;0.20;;;;;;;9.40;93.39;101964.91;5056499;28;20422;-69
2021/12/14 11:58:17;;;;;;;0.40;0.30;;;;;;;9.46;93.11;101979.28;5056477;28;20442;-69
2021/12/14 12:00:48;;;;;;;0.40;0.30;;;;;;;9.49;92.85;101976.06;5056308;28;20809;-69
2021/12/14 12:03:23;;;;;;;0.40;0.30;;;;;;;9.52;91.89;101970.16;5056220;28;20470;-69
2021/12/14 12:06:02;;;;;;;0.40;0.20;;;;;;;9.52;91.80;101962.84;5056257;28;20855;-69
2021/12/14 12:11:16;;;;;;;0.40;0.30;;;;;;;9.48;92.73;101955.50;5055783;28;20499;-69